sensor_id;sensor_type;location;lat;lon;timestamp;temperature;humidity
1786;DHT22;890;48.158;11.540;2022-12-07T00:01:07;4.90;92.90
1786;DHT22;890;48.158;11.540;2022-12-07T00:03:34;4.90;92.90
1786;DHT22;890;48.158;11.540;2022-12-07T00:06:00;4.90;93.10
1786;DHT22;890;48.158;11.540;2022-12-07T00:08:26;4.90;92.90
1786;DHT22;890;48.158;11.540;2022-12-07T00:10:52;4.90;92.90
1786;DHT22;890;48.158;11.540;2022-12-07T00:13:18;4.80;92.90
1786;DHT22;890;48.158;11.540;2022-12-07T00:15:44;4.80;93.00
1786;DHT22;890;48.158;11.540;2022-12-07T00:18:10;4.80;92.90
1786;DHT22;890;48.158;11.540;2022-12-07T00:20:35;4.80;92.90
1786;DHT22;890;48.158;11.540;2022-12-07T00:23:01;4.80;92.90
1786;DHT22;890;48.158;11.540;2022-12-07T00:25:26;4.80;93.00
1786;DHT22;890;48.158;11.540;2022-12-07T00:27:53;4.80;93.00
1786;DHT22;890;48.158;11.540;2022-12-07T00:30:22;4.80;93.00
1786;DHT22;890;48.158;11.540;2022-12-07T00:32:48;4.80;93.00
1786;DHT22;890;48.158;11.540;2022-12-07T00:35:13;4.80;93.10
1786;DHT22;890;48.158;11.540;2022-12-07T00:37:39;4.80;93.10
1786;DHT22;890;48.158;11.540;2022-12-07T00:40:05;4.80;93.30
1786;DHT22;890;48.158;11.540;2022-12-07T00:42:31;4.80;93.00
1786;DHT22;890;48.158;11.540;2022-12-07T00:44:57;4.80;93.10
1786;DHT22;890;48.158;11.540;2022-12-07T00:47:22;4.80;93.10
1786;DHT22;890;48.158;11.540;2022-12-07T00:49:48;4.80;93.20
1786;DHT22;890;48.158;11.540;2022-12-07T00:52:14;4.80;93.20
1786;DHT22;890;48.158;11.540;2022-12-07T00:54:40;4.80;93.00
1786;DHT22;890;48.158;11.540;2022-12-07T00:57:05;4.80;93.00
1786;DHT22;890;48.158;11.540;2022-12-07T00:59:31;4.80;93.10
1786;DHT22;890;48.158;11.540;2022-12-07T01:01:57;4.80;93.00
1786;DHT22;890;48.158;11.540;2022-12-07T01:04:22;4.80;93.00
1786;DHT22;890;48.158;11.540;2022-12-07T01:06:48;4.80;93.00
1786;DHT22;890;48.158;11.540;2022-12-07T01:09:14;4.80;93.10
1786;DHT22;890;48.158;11.540;2022-12-07T01:11:39;4.80;93.10
1786;DHT22;890;48.158;11.540;2022-12-07T01:14:05;4.80;93.00
1786;DHT22;890;48.158;11.540;2022-12-07T01:16:31;4.80;92.90
1786;DHT22;890;48.158;11.540;2022-12-07T01:18:59;4.90;93.00
1786;DHT22;890;48.158;11.540;2022-12-07T01:21:30;4.90;92.80
1786;DHT22;890;48.158;11.540;2022-12-07T01:24:00;4.80;92.80
1786;DHT22;890;48.158;11.540;2022-12-07T01:26:28;4.80;92.70
1786;DHT22;890;48.158;11.540;2022-12-07T01:28:54;4.70;92.80
1786;DHT22;890;48.158;11.540;2022-12-07T01:31:23;4.80;92.90
1786;DHT22;890;48.158;11.540;2022-12-07T01:33:52;4.80;92.80
1786;DHT22;890;48.158;11.540;2022-12-07T01:36:24;4.70;92.80
1786;DHT22;890;48.158;11.540;2022-12-07T01:38:53;4.70;92.80
1786;DHT22;890;48.158;11.540;2022-12-07T01:41:22;4.40;92.40
1786;DHT22;890;48.158;11.540;2022-12-07T01:49:42;4.60;93.10
1786;DHT22;890;48.158;11.540;2022-12-07T01:52:15;4.50;93.10
1786;DHT22;890;48.158;11.540;2022-12-07T01:54:43;4.50;93.50
1786;DHT22;890;48.158;11.540;2022-12-07T01:57:10;4.60;93.20
1786;DHT22;890;48.158;11.540;2022-12-07T01:59:36;4.70;93.20
1786;DHT22;890;48.158;11.540;2022-12-07T02:02:07;4.70;93.10
1786;DHT22;890;48.158;11.540;2022-12-07T02:04:35;4.70;93.10
1786;DHT22;890;48.158;11.540;2022-12-07T02:07:02;4.70;93.00
1786;DHT22;890;48.158;11.540;2022-12-07T02:09:28;4.70;93.10
1786;DHT22;890;48.158;11.540;2022-12-07T02:11:55;4.70;93.20
1786;DHT22;890;48.158;11.540;2022-12-07T02:14:21;4.70;93.20
1786;DHT22;890;48.158;11.540;2022-12-07T02:25:08;4.60;93.10
1786;DHT22;890;48.158;11.540;2022-12-07T02:30:29;4.60;93.20
1786;DHT22;890;48.158;11.540;2022-12-07T02:35:46;4.50;93.10
1786;DHT22;890;48.158;11.540;2022-12-07T02:38:20;4.50;93.20
1786;DHT22;890;48.158;11.540;2022-12-07T02:40:53;4.50;93.20
1786;DHT22;890;48.158;11.540;2022-12-07T02:43:28;4.60;93.30
1786;DHT22;890;48.158;11.540;2022-12-07T02:46:00;4.40;93.30
1786;DHT22;890;48.158;11.540;2022-12-07T02:48:28;4.50;93.70
1786;DHT22;890;48.158;11.540;2022-12-07T02:50:54;4.50;93.40
1786;DHT22;890;48.158;11.540;2022-12-07T02:53:32;4.50;93.50
1786;DHT22;890;48.158;11.540;2022-12-07T02:56:26;4.40;93.60
1786;DHT22;890;48.158;11.540;2022-12-07T03:04:50;4.40;94.10
1786;DHT22;890;48.158;11.540;2022-12-07T03:09:54;4.50;93.90
1786;DHT22;890;48.158;11.540;2022-12-07T03:15:49;4.50;93.90
1786;DHT22;890;48.158;11.540;2022-12-07T03:18:21;4.40;93.80
1786;DHT22;890;48.158;11.540;2022-12-07T03:20:49;4.60;93.90
1786;DHT22;890;48.158;11.540;2022-12-07T03:23:17;4.60;93.80
1786;DHT22;890;48.158;11.540;2022-12-07T03:25:47;4.60;93.70
1786;DHT22;890;48.158;11.540;2022-12-07T03:28:17;4.50;93.70
1786;DHT22;890;48.158;11.540;2022-12-07T03:30:51;4.60;93.70
1786;DHT22;890;48.158;11.540;2022-12-07T03:33:26;4.60;93.70
1786;DHT22;890;48.158;11.540;2022-12-07T03:36:01;4.50;93.70
1786;DHT22;890;48.158;11.540;2022-12-07T03:38:45;4.60;93.70
1786;DHT22;890;48.158;11.540;2022-12-07T03:41:17;4.50;93.50
1786;DHT22;890;48.158;11.540;2022-12-07T03:43:44;4.60;93.60
1786;DHT22;890;48.158;11.540;2022-12-07T03:46:32;4.60;93.50
1786;DHT22;890;48.158;11.540;2022-12-07T03:54:34;4.50;93.50
1786;DHT22;890;48.158;11.540;2022-12-07T03:57:02;4.50;93.60
1786;DHT22;890;48.158;11.540;2022-12-07T03:59:30;4.50;93.70
1786;DHT22;890;48.158;11.540;2022-12-07T04:01:58;4.40;93.70
1786;DHT22;890;48.158;11.540;2022-12-07T04:04:27;4.40;93.90
1786;DHT22;890;48.158;11.540;2022-12-07T04:06:53;4.50;94.00
1786;DHT22;890;48.158;11.540;2022-12-07T04:09:18;4.50;94.00
1786;DHT22;890;48.158;11.540;2022-12-07T04:11:44;4.60;94.00
1786;DHT22;890;48.158;11.540;2022-12-07T04:14:09;4.60;93.80
1786;DHT22;890;48.158;11.540;2022-12-07T04:19:17;4.50;93.90
1786;DHT22;890;48.158;11.540;2022-12-07T04:21:43;4.70;94.10
1786;DHT22;890;48.158;11.540;2022-12-07T04:24:09;4.70;93.90
1786;DHT22;890;48.158;11.540;2022-12-07T04:26:34;4.70;93.80
1786;DHT22;890;48.158;11.540;2022-12-07T04:29:00;4.60;94.00
1786;DHT22;890;48.158;11.540;2022-12-07T04:31:26;4.60;94.10
1786;DHT22;890;48.158;11.540;2022-12-07T04:33:51;4.60;94.10
1786;DHT22;890;48.158;11.540;2022-12-07T04:36:17;4.50;94.20
1786;DHT22;890;48.158;11.540;2022-12-07T04:38:45;4.50;94.30
1786;DHT22;890;48.158;11.540;2022-12-07T04:41:10;4.50;94.50
1786;DHT22;890;48.158;11.540;2022-12-07T04:43:36;4.50;94.60
1786;DHT22;890;48.158;11.540;2022-12-07T04:46:02;4.50;94.70
1786;DHT22;890;48.158;11.540;2022-12-07T04:48:28;4.60;94.90
1786;DHT22;890;48.158;11.540;2022-12-07T04:50:53;4.60;94.90
1786;DHT22;890;48.158;11.540;2022-12-07T04:53:19;4.60;94.90
1786;DHT22;890;48.158;11.540;2022-12-07T04:55:45;4.50;94.90
1786;DHT22;890;48.158;11.540;2022-12-07T04:58:12;4.50;95.00
1786;DHT22;890;48.158;11.540;2022-12-07T05:00:38;4.40;95.20
1786;DHT22;890;48.158;11.540;2022-12-07T05:03:04;4.40;95.30
1786;DHT22;890;48.158;11.540;2022-12-07T05:05:30;4.40;95.40
1786;DHT22;890;48.158;11.540;2022-12-07T05:07:56;4.40;95.50
1786;DHT22;890;48.158;11.540;2022-12-07T05:10:21;4.40;95.60
1786;DHT22;890;48.158;11.540;2022-12-07T05:12:47;4.50;95.70
1786;DHT22;890;48.158;11.540;2022-12-07T05:15:13;4.40;95.60
1786;DHT22;890;48.158;11.540;2022-12-07T05:17:39;4.40;95.60
1786;DHT22;890;48.158;11.540;2022-12-07T05:20:05;4.30;95.80
1786;DHT22;890;48.158;11.540;2022-12-07T05:22:31;4.30;95.80
1786;DHT22;890;48.158;11.540;2022-12-07T05:24:57;4.30;95.90
1786;DHT22;890;48.158;11.540;2022-12-07T05:27:23;4.30;96.00
1786;DHT22;890;48.158;11.540;2022-12-07T05:29:50;4.30;96.00
1786;DHT22;890;48.158;11.540;2022-12-07T05:32:16;4.20;96.10
1786;DHT22;890;48.158;11.540;2022-12-07T05:34:41;4.10;96.10
1786;DHT22;890;48.158;11.540;2022-12-07T05:37:07;4.10;96.10
1786;DHT22;890;48.158;11.540;2022-12-07T05:39:32;4.10;96.30
1786;DHT22;890;48.158;11.540;2022-12-07T05:41:58;4.10;96.50
1786;DHT22;890;48.158;11.540;2022-12-07T05:44:40;4.00;96.10
1786;DHT22;890;48.158;11.540;2022-12-07T05:47:06;4.00;96.20
1786;DHT22;890;48.158;11.540;2022-12-07T05:49:32;4.10;96.40
1786;DHT22;890;48.158;11.540;2022-12-07T05:51:57;4.10;96.30
1786;DHT22;890;48.158;11.540;2022-12-07T05:54:23;4.10;96.20
1786;DHT22;890;48.158;11.540;2022-12-07T05:56:49;4.10;96.30
1786;DHT22;890;48.158;11.540;2022-12-07T05:59:15;4.10;96.30
1786;DHT22;890;48.158;11.540;2022-12-07T06:01:56;4.20;96.30
1786;DHT22;890;48.158;11.540;2022-12-07T06:04:22;4.10;96.10
1786;DHT22;890;48.158;11.540;2022-12-07T06:06:49;4.10;96.20
1786;DHT22;890;48.158;11.540;2022-12-07T06:09:15;4.10;96.40
1786;DHT22;890;48.158;11.540;2022-12-07T06:11:41;4.20;96.40
1786;DHT22;890;48.158;11.540;2022-12-07T06:14:25;4.20;96.30
1786;DHT22;890;48.158;11.540;2022-12-07T06:16:51;4.10;96.30
1786;DHT22;890;48.158;11.540;2022-12-07T06:19:16;4.10;96.50
1786;DHT22;890;48.158;11.540;2022-12-07T06:21:42;4.10;96.50
1786;DHT22;890;48.158;11.540;2022-12-07T06:24:11;4.20;96.60
1786;DHT22;890;48.158;11.540;2022-12-07T06:26:37;4.10;96.60
1786;DHT22;890;48.158;11.540;2022-12-07T06:29:03;4.30;96.60
1786;DHT22;890;48.158;11.540;2022-12-07T06:31:28;4.30;96.40
1786;DHT22;890;48.158;11.540;2022-12-07T06:34:02;4.30;96.30
1786;DHT22;890;48.158;11.540;2022-12-07T06:36:28;4.10;96.20
1786;DHT22;890;48.158;11.540;2022-12-07T06:38:54;4.20;96.30
1786;DHT22;890;48.158;11.540;2022-12-07T06:41:20;4.20;96.40
1786;DHT22;890;48.158;11.540;2022-12-07T06:43:45;4.20;96.30
1786;DHT22;890;48.158;11.540;2022-12-07T06:46:11;4.20;96.20
1786;DHT22;890;48.158;11.540;2022-12-07T06:48:36;4.20;96.20
1786;DHT22;890;48.158;11.540;2022-12-07T06:51:02;4.20;96.20
1786;DHT22;890;48.158;11.540;2022-12-07T06:53:27;4.20;96.20
1786;DHT22;890;48.158;11.540;2022-12-07T06:55:53;4.30;96.20
1786;DHT22;890;48.158;11.540;2022-12-07T06:58:18;4.30;96.20
1786;DHT22;890;48.158;11.540;2022-12-07T07:00:45;4.30;96.10
1786;DHT22;890;48.158;11.540;2022-12-07T07:03:10;4.30;96.10
1786;DHT22;890;48.158;11.540;2022-12-07T07:05:36;4.30;96.10
1786;DHT22;890;48.158;11.540;2022-12-07T07:08:02;4.30;96.10
1786;DHT22;890;48.158;11.540;2022-12-07T07:10:28;4.30;96.00
1786;DHT22;890;48.158;11.540;2022-12-07T07:12:53;4.30;96.00
1786;DHT22;890;48.158;11.540;2022-12-07T07:15:19;4.30;95.90
1786;DHT22;890;48.158;11.540;2022-12-07T07:17:45;4.40;96.00
1786;DHT22;890;48.158;11.540;2022-12-07T07:20:11;4.40;96.00
1786;DHT22;890;48.158;11.540;2022-12-07T07:22:37;4.40;95.90
1786;DHT22;890;48.158;11.540;2022-12-07T07:25:03;4.40;95.70
1786;DHT22;890;48.158;11.540;2022-12-07T07:27:29;4.30;95.60
1786;DHT22;890;48.158;11.540;2022-12-07T07:29:54;4.30;95.60
1786;DHT22;890;48.158;11.540;2022-12-07T07:32:20;4.30;95.70
1786;DHT22;890;48.158;11.540;2022-12-07T07:34:47;4.30;95.70
1786;DHT22;890;48.158;11.540;2022-12-07T07:37:13;4.30;95.70
1786;DHT22;890;48.158;11.540;2022-12-07T07:39:39;4.30;95.80
1786;DHT22;890;48.158;11.540;2022-12-07T07:42:05;4.30;95.70
1786;DHT22;890;48.158;11.540;2022-12-07T07:44:30;4.40;95.80
1786;DHT22;890;48.158;11.540;2022-12-07T07:46:56;4.40;95.70
1786;DHT22;890;48.158;11.540;2022-12-07T07:49:21;4.40;95.60
1786;DHT22;890;48.158;11.540;2022-12-07T07:51:47;4.40;95.60
1786;DHT22;890;48.158;11.540;2022-12-07T07:54:12;4.40;95.70
1786;DHT22;890;48.158;11.540;2022-12-07T07:56:38;4.50;95.70
1786;DHT22;890;48.158;11.540;2022-12-07T07:59:04;4.50;95.60
1786;DHT22;890;48.158;11.540;2022-12-07T08:01:29;4.60;95.40
1786;DHT22;890;48.158;11.540;2022-12-07T08:03:55;4.60;95.30
1786;DHT22;890;48.158;11.540;2022-12-07T08:06:20;4.60;95.30
1786;DHT22;890;48.158;11.540;2022-12-07T08:08:46;4.70;95.10
1786;DHT22;890;48.158;11.540;2022-12-07T08:11:11;4.70;95.10
1786;DHT22;890;48.158;11.540;2022-12-07T08:13:37;4.70;95.10
1786;DHT22;890;48.158;11.540;2022-12-07T08:16:05;4.80;95.00
1786;DHT22;890;48.158;11.540;2022-12-07T08:18:31;4.90;94.70
1786;DHT22;890;48.158;11.540;2022-12-07T08:21:00;4.90;94.60
1786;DHT22;890;48.158;11.540;2022-12-07T08:23:29;4.80;94.50
1786;DHT22;890;48.158;11.540;2022-12-07T08:25:59;4.90;94.40
1786;DHT22;890;48.158;11.540;2022-12-07T08:28:25;5.00;94.40
1786;DHT22;890;48.158;11.540;2022-12-07T08:30:51;5.00;94.30
1786;DHT22;890;48.158;11.540;2022-12-07T08:33:17;4.90;94.20
1786;DHT22;890;48.158;11.540;2022-12-07T08:35:42;4.80;94.10
1786;DHT22;890;48.158;11.540;2022-12-07T08:38:08;4.80;94.20
1786;DHT22;890;48.158;11.540;2022-12-07T08:40:34;4.80;94.30
1786;DHT22;890;48.158;11.540;2022-12-07T08:43:00;4.90;94.40
1786;DHT22;890;48.158;11.540;2022-12-07T08:45:26;5.00;94.30
1786;DHT22;890;48.158;11.540;2022-12-07T08:48:03;5.00;94.20
1786;DHT22;890;48.158;11.540;2022-12-07T08:50:29;5.00;94.20
1786;DHT22;890;48.158;11.540;2022-12-07T08:52:57;5.10;94.20
1786;DHT22;890;48.158;11.540;2022-12-07T08:55:24;5.30;94.20
1786;DHT22;890;48.158;11.540;2022-12-07T08:57:50;5.50;93.90
1786;DHT22;890;48.158;11.540;2022-12-07T09:00:16;5.40;93.40
1786;DHT22;890;48.158;11.540;2022-12-07T09:02:43;5.40;93.30
1786;DHT22;890;48.158;11.540;2022-12-07T09:05:09;5.40;93.20
1786;DHT22;890;48.158;11.540;2022-12-07T09:07:35;5.50;93.10
1786;DHT22;890;48.158;11.540;2022-12-07T09:10:02;5.60;92.90
1786;DHT22;890;48.158;11.540;2022-12-07T09:12:27;5.60;92.60
1786;DHT22;890;48.158;11.540;2022-12-07T09:14:53;5.60;92.40
1786;DHT22;890;48.158;11.540;2022-12-07T09:17:18;5.60;92.20
1786;DHT22;890;48.158;11.540;2022-12-07T09:19:44;5.70;91.70
1786;DHT22;890;48.158;11.540;2022-12-07T09:22:10;5.60;91.60
1786;DHT22;890;48.158;11.540;2022-12-07T09:24:36;5.60;91.70
1786;DHT22;890;48.158;11.540;2022-12-07T09:27:01;5.60;91.70
1786;DHT22;890;48.158;11.540;2022-12-07T09:29:27;5.60;91.60
1786;DHT22;890;48.158;11.540;2022-12-07T09:31:53;6.60;92.00
1786;DHT22;890;48.158;11.540;2022-12-07T09:34:18;5.80;91.50
1786;DHT22;890;48.158;11.540;2022-12-07T09:36:44;5.80;91.10
1786;DHT22;890;48.158;11.540;2022-12-07T09:39:10;5.70;90.90
1786;DHT22;890;48.158;11.540;2022-12-07T09:41:40;5.60;90.80
1786;DHT22;890;48.158;11.540;2022-12-07T09:44:20;5.50;90.60
1786;DHT22;890;48.158;11.540;2022-12-07T09:46:47;5.60;90.40
1786;DHT22;890;48.158;11.540;2022-12-07T09:49:17;5.70;90.60
1786;DHT22;890;48.158;11.540;2022-12-07T09:51:44;5.80;90.50
1786;DHT22;890;48.158;11.540;2022-12-07T09:54:14;5.90;90.40
1786;DHT22;890;48.158;11.540;2022-12-07T09:56:40;5.70;90.70
1786;DHT22;890;48.158;11.540;2022-12-07T09:59:06;5.80;90.50
1786;DHT22;890;48.158;11.540;2022-12-07T10:01:33;5.70;90.40
1786;DHT22;890;48.158;11.540;2022-12-07T10:04:17;5.70;90.40
1786;DHT22;890;48.158;11.540;2022-12-07T10:06:43;5.70;90.10
1786;DHT22;890;48.158;11.540;2022-12-07T10:09:13;5.80;90.30
1786;DHT22;890;48.158;11.540;2022-12-07T10:12:06;5.80;90.20
1786;DHT22;890;48.158;11.540;2022-12-07T10:14:36;5.80;89.80
1786;DHT22;890;48.158;11.540;2022-12-07T10:17:02;5.90;90.00
1786;DHT22;890;48.158;11.540;2022-12-07T10:19:32;5.90;89.80
1786;DHT22;890;48.158;11.540;2022-12-07T10:22:05;5.90;89.70
1786;DHT22;890;48.158;11.540;2022-12-07T10:24:34;6.00;89.00
1786;DHT22;890;48.158;11.540;2022-12-07T10:27:00;6.10;88.90
1786;DHT22;890;48.158;11.540;2022-12-07T10:29:34;6.10;88.70
1786;DHT22;890;48.158;11.540;2022-12-07T10:34:35;6.00;88.00
1786;DHT22;890;48.158;11.540;2022-12-07T10:39:54;6.10;87.60
1786;DHT22;890;48.158;11.540;2022-12-07T10:42:29;6.30;87.00
1786;DHT22;890;48.158;11.540;2022-12-07T10:47:55;6.40;86.30
1786;DHT22;890;48.158;11.540;2022-12-07T10:53:23;6.80;86.40
1786;DHT22;890;48.158;11.540;2022-12-07T10:59:19;7.10;88.20
1786;DHT22;890;48.158;11.540;2022-12-07T11:07:57;8.40;88.40
1786;DHT22;890;48.158;11.540;2022-12-07T11:13:18;9.10;86.80
1786;DHT22;890;48.158;11.540;2022-12-07T11:15:59;9.40;83.80
1786;DHT22;890;48.158;11.540;2022-12-07T11:18:32;9.60;82.40
1786;DHT22;890;48.158;11.540;2022-12-07T11:21:09;9.50;81.00
1786;DHT22;890;48.158;11.540;2022-12-07T11:32:13;9.60;85.80
1786;DHT22;890;48.158;11.540;2022-12-07T11:37:37;9.70;81.10
1786;DHT22;890;48.158;11.540;2022-12-07T11:42:52;9.20;75.90
1786;DHT22;890;48.158;11.540;2022-12-07T11:45:27;8.90;75.30
1786;DHT22;890;48.158;11.540;2022-12-07T11:48:00;8.60;75.20
1786;DHT22;890;48.158;11.540;2022-12-07T11:55:53;8.20;71.80
1786;DHT22;890;48.158;11.540;2022-12-07T12:03:53;7.50;70.70
1786;DHT22;890;48.158;11.540;2022-12-07T12:06:21;7.60;71.90
1786;DHT22;890;48.158;11.540;2022-12-07T12:17:50;6.80;69.60
1786;DHT22;890;48.158;11.540;2022-12-07T12:20:31;6.70;69.90
1786;DHT22;890;48.158;11.540;2022-12-07T12:22:59;6.70;70.30
1786;DHT22;890;48.158;11.540;2022-12-07T12:25:28;6.80;70.30
1786;DHT22;890;48.158;11.540;2022-12-07T12:27:57;6.70;69.60
1786;DHT22;890;48.158;11.540;2022-12-07T12:33:19;6.60;69.00
1786;DHT22;890;48.158;11.540;2022-12-07T12:36:18;6.20;68.30
1786;DHT22;890;48.158;11.540;2022-12-07T12:46:57;6.40;69.80
1786;DHT22;890;48.158;11.540;2022-12-07T12:51:54;6.10;69.60
1786;DHT22;890;48.158;11.540;2022-12-07T12:54:31;6.10;70.00
1786;DHT22;890;48.158;11.540;2022-12-07T13:10:42;6.00;70.60
1786;DHT22;890;48.158;11.540;2022-12-07T13:15:47;6.20;70.60
1786;DHT22;890;48.158;11.540;2022-12-07T13:31:52;6.10;70.60
1786;DHT22;890;48.158;11.540;2022-12-07T13:34:40;6.10;70.70
1786;DHT22;890;48.158;11.540;2022-12-07T13:37:28;6.00;70.70
1786;DHT22;890;48.158;11.540;2022-12-07T13:39:54;6.00;70.90
1786;DHT22;890;48.158;11.540;2022-12-07T13:42:29;6.10;71.00
1786;DHT22;890;48.158;11.540;2022-12-07T13:44:56;6.10;71.10
1786;DHT22;890;48.158;11.540;2022-12-07T13:49:59;6.00;71.20
1786;DHT22;890;48.158;11.540;2022-12-07T13:52:30;6.00;71.10
1786;DHT22;890;48.158;11.540;2022-12-07T13:54:59;6.00;71.30
1786;DHT22;890;48.158;11.540;2022-12-07T13:57:27;6.00;71.50
1786;DHT22;890;48.158;11.540;2022-12-07T13:59:54;6.10;71.50
1786;DHT22;890;48.158;11.540;2022-12-07T14:02:30;6.10;71.30
1786;DHT22;890;48.158;11.540;2022-12-07T14:05:23;5.90;71.20
1786;DHT22;890;48.158;11.540;2022-12-07T14:10:40;5.80;71.40
1786;DHT22;890;48.158;11.540;2022-12-07T14:13:32;5.90;71.70
1786;DHT22;890;48.158;11.540;2022-12-07T14:18:42;5.70;71.70
1786;DHT22;890;48.158;11.540;2022-12-07T14:21:14;5.70;71.70
1786;DHT22;890;48.158;11.540;2022-12-07T14:23:41;5.70;71.80
1786;DHT22;890;48.158;11.540;2022-12-07T14:26:13;6.20;72.20
1786;DHT22;890;48.158;11.540;2022-12-07T14:28:39;5.80;71.80
1786;DHT22;890;48.158;11.540;2022-12-07T14:31:13;5.80;71.00
1786;DHT22;890;48.158;11.540;2022-12-07T14:33:40;5.80;70.20
1786;DHT22;890;48.158;11.540;2022-12-07T14:36:07;5.80;69.90
1786;DHT22;890;48.158;11.540;2022-12-07T14:38:34;5.80;69.60
1786;DHT22;890;48.158;11.540;2022-12-07T14:40:59;5.70;69.20
1786;DHT22;890;48.158;11.540;2022-12-07T14:43:45;5.70;69.10
1786;DHT22;890;48.158;11.540;2022-12-07T14:46:11;5.70;69.20
1786;DHT22;890;48.158;11.540;2022-12-07T14:48:36;5.70;69.00
1786;DHT22;890;48.158;11.540;2022-12-07T14:51:02;5.80;69.10
1786;DHT22;890;48.158;11.540;2022-12-07T14:53:36;5.80;69.00
1786;DHT22;890;48.158;11.540;2022-12-07T14:56:03;5.60;68.80
1786;DHT22;890;48.158;11.540;2022-12-07T14:58:30;5.70;69.10
1786;DHT22;890;48.158;11.540;2022-12-07T15:00:56;5.70;69.20
1786;DHT22;890;48.158;11.540;2022-12-07T15:03:22;5.80;69.30
1786;DHT22;890;48.158;11.540;2022-12-07T15:05:47;5.70;69.20
1786;DHT22;890;48.158;11.540;2022-12-07T15:08:13;5.70;69.30
1786;DHT22;890;48.158;11.540;2022-12-07T15:10:39;5.70;69.30
1786;DHT22;890;48.158;11.540;2022-12-07T15:13:05;5.70;69.40
1786;DHT22;890;48.158;11.540;2022-12-07T15:15:51;5.70;69.60
1786;DHT22;890;48.158;11.540;2022-12-07T15:18:18;5.70;69.70
1786;DHT22;890;48.158;11.540;2022-12-07T15:20:45;5.80;69.80
1786;DHT22;890;48.158;11.540;2022-12-07T15:23:12;5.80;69.90
1786;DHT22;890;48.158;11.540;2022-12-07T15:25:45;5.80;70.00
1786;DHT22;890;48.158;11.540;2022-12-07T15:28:12;5.70;70.20
1786;DHT22;890;48.158;11.540;2022-12-07T15:30:39;5.80;70.40
1786;DHT22;890;48.158;11.540;2022-12-07T15:33:05;5.90;70.60
1786;DHT22;890;48.158;11.540;2022-12-07T15:35:31;5.90;70.50
1786;DHT22;890;48.158;11.540;2022-12-07T15:37:56;5.90;70.80
1786;DHT22;890;48.158;11.540;2022-12-07T15:40:22;5.80;71.30
1786;DHT22;890;48.158;11.540;2022-12-07T15:42:47;5.80;71.90
1786;DHT22;890;48.158;11.540;2022-12-07T15:45:13;5.80;72.30
1786;DHT22;890;48.158;11.540;2022-12-07T15:47:41;5.80;72.70
1786;DHT22;890;48.158;11.540;2022-12-07T15:50:10;5.70;73.10
1786;DHT22;890;48.158;11.540;2022-12-07T15:52:36;5.70;73.40
1786;DHT22;890;48.158;11.540;2022-12-07T15:55:02;5.70;73.60
1786;DHT22;890;48.158;11.540;2022-12-07T15:57:29;5.70;73.90
1786;DHT22;890;48.158;11.540;2022-12-07T15:59:55;5.70;74.10
1786;DHT22;890;48.158;11.540;2022-12-07T16:02:21;5.70;74.30
1786;DHT22;890;48.158;11.540;2022-12-07T16:04:48;5.70;74.50
1786;DHT22;890;48.158;11.540;2022-12-07T16:07:13;5.60;74.60
1786;DHT22;890;48.158;11.540;2022-12-07T16:09:44;5.60;74.90
1786;DHT22;890;48.158;11.540;2022-12-07T16:12:10;5.60;75.20
1786;DHT22;890;48.158;11.540;2022-12-07T16:14:36;5.60;75.40
1786;DHT22;890;48.158;11.540;2022-12-07T16:17:02;5.50;75.50
1786;DHT22;890;48.158;11.540;2022-12-07T16:19:30;5.50;75.70
1786;DHT22;890;48.158;11.540;2022-12-07T16:21:55;5.50;75.90
1786;DHT22;890;48.158;11.540;2022-12-07T16:24:21;5.50;76.00
1786;DHT22;890;48.158;11.540;2022-12-07T16:26:47;5.50;76.80
1786;DHT22;890;48.158;11.540;2022-12-07T16:29:13;5.50;76.20
1786;DHT22;890;48.158;11.540;2022-12-07T16:31:38;5.50;76.30
1786;DHT22;890;48.158;11.540;2022-12-07T16:34:04;5.50;76.30
1786;DHT22;890;48.158;11.540;2022-12-07T16:36:30;6.70;77.60
1786;DHT22;890;48.158;11.540;2022-12-07T16:38:55;5.60;76.60
1786;DHT22;890;48.158;11.540;2022-12-07T16:41:23;5.50;76.50
1786;DHT22;890;48.158;11.540;2022-12-07T16:43:48;5.50;76.80
1786;DHT22;890;48.158;11.540;2022-12-07T16:46:14;5.40;76.80
1786;DHT22;890;48.158;11.540;2022-12-07T16:48:41;5.50;77.20
1786;DHT22;890;48.158;11.540;2022-12-07T16:51:09;5.50;77.30
1786;DHT22;890;48.158;11.540;2022-12-07T16:53:36;5.50;77.40
1786;DHT22;890;48.158;11.540;2022-12-07T16:56:02;5.50;77.30
1786;DHT22;890;48.158;11.540;2022-12-07T16:58:28;5.60;77.40
1786;DHT22;890;48.158;11.540;2022-12-07T17:00:54;5.60;77.20
1786;DHT22;890;48.158;11.540;2022-12-07T17:03:20;5.60;77.10
1786;DHT22;890;48.158;11.540;2022-12-07T17:05:46;5.60;77.00
1786;DHT22;890;48.158;11.540;2022-12-07T17:08:12;5.50;76.60
1786;DHT22;890;48.158;11.540;2022-12-07T17:10:41;5.60;76.60
1786;DHT22;890;48.158;11.540;2022-12-07T17:13:07;5.50;76.40
1786;DHT22;890;48.158;11.540;2022-12-07T17:16:02;5.50;76.40
1786;DHT22;890;48.158;11.540;2022-12-07T17:18:33;5.40;76.70
1786;DHT22;890;48.158;11.540;2022-12-07T17:21:04;5.40;76.80
1786;DHT22;890;48.158;11.540;2022-12-07T17:23:30;5.30;76.70
1786;DHT22;890;48.158;11.540;2022-12-07T17:26:03;5.40;76.70
1786;DHT22;890;48.158;11.540;2022-12-07T17:28:28;5.40;76.80
1786;DHT22;890;48.158;11.540;2022-12-07T17:30:54;5.40;77.00
1786;DHT22;890;48.158;11.540;2022-12-07T17:33:19;5.30;76.90
1786;DHT22;890;48.158;11.540;2022-12-07T17:35:49;5.30;77.00
1786;DHT22;890;48.158;11.540;2022-12-07T17:38:15;5.30;77.20
1786;DHT22;890;48.158;11.540;2022-12-07T17:40:40;5.30;77.30
1786;DHT22;890;48.158;11.540;2022-12-07T17:43:06;5.30;77.20
1786;DHT22;890;48.158;11.540;2022-12-07T17:45:31;5.30;77.20
1786;DHT22;890;48.158;11.540;2022-12-07T17:47:57;5.30;77.40
1786;DHT22;890;48.158;11.540;2022-12-07T17:50:22;5.20;77.30
1786;DHT22;890;48.158;11.540;2022-12-07T17:53:11;5.20;77.40
1786;DHT22;890;48.158;11.540;2022-12-07T17:55:37;5.10;77.20
1786;DHT22;890;48.158;11.540;2022-12-07T17:58:03;5.10;77.10
1786;DHT22;890;48.158;11.540;2022-12-07T18:00:29;4.90;77.10
1786;DHT22;890;48.158;11.540;2022-12-07T18:02:54;4.90;77.40
1786;DHT22;890;48.158;11.540;2022-12-07T18:07:46;4.70;77.70
1786;DHT22;890;48.158;11.540;2022-12-07T18:10:12;4.80;77.80
1786;DHT22;890;48.158;11.540;2022-12-07T18:12:38;4.80;77.70
1786;DHT22;890;48.158;11.540;2022-12-07T18:15:05;4.70;77.80
1786;DHT22;890;48.158;11.540;2022-12-07T18:17:30;4.70;77.80
1786;DHT22;890;48.158;11.540;2022-12-07T18:19:56;4.70;78.00
1786;DHT22;890;48.158;11.540;2022-12-07T18:22:21;4.70;78.10
1786;DHT22;890;48.158;11.540;2022-12-07T18:24:47;4.70;78.20
1786;DHT22;890;48.158;11.540;2022-12-07T18:27:13;4.70;78.30
1786;DHT22;890;48.158;11.540;2022-12-07T18:29:38;4.60;78.20
1786;DHT22;890;48.158;11.540;2022-12-07T18:32:04;4.60;78.40
1786;DHT22;890;48.158;11.540;2022-12-07T18:34:30;4.60;78.60
1786;DHT22;890;48.158;11.540;2022-12-07T18:36:56;4.60;78.70
1786;DHT22;890;48.158;11.540;2022-12-07T18:39:22;4.60;78.70
1786;DHT22;890;48.158;11.540;2022-12-07T18:41:47;4.60;78.80
1786;DHT22;890;48.158;11.540;2022-12-07T18:44:14;4.60;78.90
1786;DHT22;890;48.158;11.540;2022-12-07T18:46:41;4.60;78.90
1786;DHT22;890;48.158;11.540;2022-12-07T18:49:08;4.60;79.00
1786;DHT22;890;48.158;11.540;2022-12-07T18:51:36;4.60;79.00
1786;DHT22;890;48.158;11.540;2022-12-07T18:54:02;4.60;78.90